EINN - Shannon Airport
Distance from station: E 5mi, 14km
Updated: 10/17/2017 8:00am
Partly Cloudy
Partly Cloudy
 Wind from WNW
Wind: WNW 6 mph , 9 km/h
Temperature: 57°F , 14°C
Dew Point: 43°F , 6°C
Humidity: 59%
Barometer: 30 inHg , 1016 hPa
Clouds: Partly Cloudy
Visibility: 6 miles , 10 km
Cloud details: Partly Cloudy 4000 ft
2017/10/17 15:00 EINN 171500Z 29005KT 9999 SCT040 14/06 Q1016 NOSIG